createdAt,value
2018-04-18T00:00:28.105Z,13.85
2018-04-18T00:01:28.141Z,13.79
2018-04-18T00:02:28.048Z,13.83
2018-04-18T00:03:27.779Z,13.86
2018-04-18T00:04:28.010Z,13.83
2018-04-18T00:05:27.992Z,13.75
2018-04-18T00:06:27.968Z,13.67
2018-04-18T00:07:27.947Z,13.7
2018-04-18T00:08:27.928Z,13.75
2018-04-18T00:09:27.971Z,13.77
2018-04-18T00:10:27.873Z,13.72
2018-04-18T00:11:27.861Z,13.7
2018-04-18T00:12:27.584Z,13.77
2018-04-18T00:13:27.908Z,13.72
2018-04-18T00:14:27.787Z,13.59
2018-04-18T00:15:27.770Z,13.59
2018-04-18T00:16:27.496Z,13.65
2018-04-18T00:17:27.720Z,13.6
2018-04-18T00:18:27.456Z,13.49
2018-04-18T00:19:27.685Z,13.54
2018-04-18T00:20:27.654Z,13.47
2018-04-18T00:21:27.637Z,13.38
2018-04-18T00:22:27.616Z,13.42
2018-04-18T00:23:27.588Z,13.39
2018-04-18T00:24:27.691Z,13.38
2018-04-18T00:25:27.549Z,13.33
2018-04-18T00:26:27.274Z,13.2
2018-04-18T00:27:27.498Z,13.2
2018-04-18T00:28:27.480Z,13.22
2018-04-18T00:29:27.457Z,13.2
2018-04-18T00:30:27.436Z,13.18
2018-04-18T00:31:27.422Z,13.05
2018-04-18T00:32:27.396Z,13.13
2018-04-18T00:33:27.367Z,13.04
2018-04-18T00:34:27.346Z,13.03
2018-04-18T00:35:27.074Z,13
2018-04-18T00:36:27.304Z,13
2018-04-18T00:37:27.282Z,13
2018-04-18T00:38:27.268Z,13.01
2018-04-18T00:39:26.986Z,13.03
2018-04-18T00:40:27.211Z,12.91
2018-04-18T00:41:27.198Z,12.9
2018-04-18T00:42:27.169Z,12.93
2018-04-18T00:43:27.149Z,12.91
2018-04-18T00:44:26.878Z,12.82
2018-04-18T00:45:27.103Z,12.91
2018-04-18T00:46:27.090Z,12.91
2018-04-18T00:47:26.809Z,12.82
2018-04-18T00:48:27.035Z,12.86
2018-04-18T00:49:26.763Z,12.83
2018-04-18T00:50:26.995Z,12.8
2018-04-18T00:51:26.970Z,12.9
2018-04-18T00:52:26.735Z,12.86
2018-04-18T00:53:26.926Z,12.85
2018-04-18T00:54:26.660Z,12.87
2018-04-18T00:55:26.878Z,12.94
2018-04-18T00:56:26.859Z,12.97
2018-04-18T00:57:26.835Z,13.04
2018-04-18T00:58:26.815Z,13.09
2018-04-18T00:59:26.540Z,13.05
2018-04-18T01:00:26.768Z,13.05
2018-04-18T01:01:26.745Z,13.16
2018-04-18T01:02:26.731Z,13.05
2018-04-18T01:03:26.695Z,13.18
2018-04-18T01:04:26.425Z,13.15
2018-04-18T01:05:26.654Z,13.19
2018-04-18T01:06:26.628Z,13.19
2018-04-18T01:07:26.613Z,13.22
2018-04-18T01:08:26.586Z,13.22
2018-04-18T01:09:26.565Z,13.23
2018-04-18T01:10:26.292Z,13.2
2018-04-18T01:11:26.522Z,13.22
2018-04-18T01:12:26.499Z,13.2
2018-04-18T01:13:26.478Z,13.16
2018-04-18T01:14:26.454Z,13.08
2018-04-18T01:15:26.426Z,13.04
2018-04-18T01:16:25.906Z,13.08
2018-04-18T01:17:26.388Z,13
2018-04-18T01:18:26.113Z,13.01
2018-04-18T01:19:26.343Z,12.9
2018-04-18T01:20:26.324Z,12.83
2018-04-18T01:21:26.300Z,12.85
2018-04-18T01:22:26.018Z,12.87
2018-04-18T01:23:26.245Z,12.83
2018-04-18T01:24:26.224Z,12.85
2018-04-18T01:25:26.204Z,12.79
2018-04-18T01:26:26.179Z,12.83
2018-04-18T01:27:26.162Z,12.83
2018-04-18T01:28:26.134Z,12.8
2018-04-18T01:29:26.119Z,12.87
2018-04-18T01:30:26.088Z,12.85
2018-04-18T01:31:26.113Z,12.83
2018-04-18T01:32:26.095Z,12.87
2018-04-18T01:33:26.028Z,12.91
2018-04-18T01:34:26.006Z,13.04
2018-04-18T01:35:25.975Z,13
2018-04-18T01:36:25.954Z,13.05
2018-04-18T01:37:25.940Z,13.03
2018-04-18T01:38:25.811Z,13.04
2018-04-18T01:39:25.891Z,13.01
2018-04-18T01:40:25.860Z,13.01
2018-04-18T01:41:25.839Z,13.03
2018-04-18T01:42:25.823Z,12.97
2018-04-18T01:43:25.548Z,12.91
2018-04-18T01:44:25.785Z,12.91
2018-04-18T01:45:25.753Z,12.91
2018-04-18T01:46:25.732Z,12.87
2018-04-18T01:47:25.706Z,12.85
2018-04-18T01:48:25.689Z,12.8
2018-04-18T01:49:25.670Z,12.78
2018-04-18T01:50:25.640Z,12.79
2018-04-18T01:51:25.619Z,12.86
2018-04-18T01:52:25.595Z,12.85
2018-04-18T01:53:25.569Z,12.83
2018-04-18T01:54:25.554Z,12.82
2018-04-18T01:55:25.278Z,12.76
2018-04-18T01:56:25.504Z,12.8
2018-04-18T01:57:25.482Z,12.82
2018-04-18T01:58:25.459Z,12.82
2018-04-18T01:59:25.498Z,12.83
2018-04-18T02:00:25.416Z,12.79
2018-04-18T02:01:25.393Z,12.78
2018-04-18T02:02:25.367Z,12.78
2018-04-18T02:03:25.097Z,12.8
2018-04-18T02:04:25.325Z,12.8
2018-04-18T02:05:25.319Z,12.82
2018-04-18T02:06:25.032Z,12.76
2018-04-18T02:07:25.254Z,12.73
2018-04-18T02:08:25.233Z,12.85
2018-04-18T02:09:25.216Z,12.85
2018-04-18T02:10:24.944Z,12.86
2018-04-18T02:11:25.169Z,12.87
2018-04-18T02:12:25.139Z,12.86
2018-04-18T02:13:25.132Z,12.94
2018-04-18T02:14:25.096Z,12.9
2018-04-18T02:15:25.077Z,12.98
2018-04-18T02:16:25.798Z,13.01
2018-04-18T02:17:25.024Z,13.01
2018-04-18T02:18:25.003Z,13.01
2018-04-18T02:19:24.988Z,13.08
2018-04-18T02:20:24.972Z,13.01
2018-04-18T02:21:24.939Z,13.05
2018-04-18T02:22:24.917Z,12.97
2018-04-18T02:23:24.898Z,13.04
2018-04-18T02:24:24.880Z,12.91
2018-04-18T02:25:24.852Z,13
2018-04-18T02:26:24.830Z,12.95
2018-04-18T02:27:24.801Z,12.94
2018-04-18T02:28:24.777Z,12.85
2018-04-18T02:29:24.768Z,12.9
2018-04-18T02:30:24.740Z,12.78
2018-04-18T02:31:24.712Z,12.82
2018-04-18T02:32:24.694Z,12.8
2018-04-18T02:33:24.668Z,12.85
2018-04-18T02:34:24.649Z,12.76
2018-04-18T02:35:24.374Z,12.76
2018-04-18T02:36:24.596Z,12.83
2018-04-18T02:37:24.575Z,12.8
2018-04-18T02:38:24.301Z,12.83
2018-04-18T02:39:24.533Z,12.75
2018-04-18T02:40:24.511Z,12.75
2018-04-18T02:41:24.495Z,12.65
2018-04-18T02:42:24.463Z,12.62
2018-04-18T02:43:24.455Z,12.62
2018-04-18T02:44:24.417Z,12.57
2018-04-18T02:45:24.401Z,12.5
2018-04-18T02:46:24.373Z,12.53
2018-04-18T02:47:24.098Z,12.6
2018-04-18T02:48:24.324Z,12.5
2018-04-18T02:49:24.306Z,12.54
2018-04-18T02:50:24.284Z,12.43
2018-04-18T02:51:24.264Z,12.54
2018-04-18T02:52:24.004Z,12.47
2018-04-18T02:53:24.211Z,12.36
2018-04-18T02:54:24.189Z,12.31
2018-04-18T02:55:23.921Z,12.39
2018-04-18T02:56:24.165Z,12.42
2018-04-18T02:57:24.117Z,12.36
2018-04-18T02:58:24.096Z,12.35
2018-04-18T02:59:24.082Z,12.36
2018-04-18T03:00:24.051Z,12.37
2018-04-18T03:01:24.050Z,12.37
2018-04-18T03:02:24.005Z,12.24
2018-04-18T03:03:23.984Z,12.28
2018-04-18T03:04:23.969Z,12.27
2018-04-18T03:05:23.949Z,12.22
2018-04-18T03:06:23.916Z,12.22
2018-04-18T03:07:23.891Z,12.2
2018-04-18T03:08:23.623Z,12.21
2018-04-18T03:09:23.845Z,12.1
2018-04-18T03:10:23.842Z,12.15
2018-04-18T03:11:23.806Z,12.17
2018-04-18T03:12:23.774Z,12.15
2018-04-18T03:13:23.752Z,12.12
2018-04-18T03:14:23.725Z,12.21
2018-04-18T03:15:23.703Z,12.18
2018-04-18T03:16:23.686Z,12.03
2018-04-18T03:17:23.664Z,12.02
2018-04-18T03:18:23.640Z,12.12
2018-04-18T03:19:23.622Z,12.15
2018-04-18T03:20:23.593Z,12.12
2018-04-18T03:21:23.569Z,12.1
2018-04-18T03:22:23.541Z,12.17
2018-04-18T03:23:23.517Z,12.17
2018-04-18T03:24:23.499Z,12.17
2018-04-18T03:25:23.478Z,12.12
2018-04-18T03:26:23.455Z,12.12
2018-04-18T03:27:23.427Z,12.03
2018-04-18T03:28:23.405Z,12.03
2018-04-18T03:29:23.383Z,12.07
2018-04-18T03:30:23.364Z,12.07
2018-04-18T03:31:23.341Z,12.04
2018-04-18T03:32:23.317Z,11.95
2018-04-18T03:33:23.297Z,11.95
2018-04-18T03:34:23.271Z,11.99
2018-04-18T03:35:23.246Z,11.94
2018-04-18T03:36:23.228Z,11.99
2018-04-18T03:37:23.199Z,11.87
2018-04-18T03:38:23.179Z,11.86
2018-04-18T03:39:22.900Z,11.99
2018-04-18T03:40:23.130Z,12.02
2018-04-18T03:41:23.107Z,11.99
2018-04-18T03:42:23.120Z,11.87
2018-04-18T03:43:23.058Z,11.97
2018-04-18T03:44:23.089Z,11.97
2018-04-18T03:45:23.015Z,11.97
2018-04-18T03:46:22.992Z,11.87
2018-04-18T03:47:22.964Z,11.97
2018-04-18T03:48:22.943Z,11.97
2018-04-18T03:49:22.924Z,11.86
2018-04-18T03:50:23.045Z,11.94
2018-04-18T03:51:22.872Z,11.86
2018-04-18T03:52:22.605Z,11.87
2018-04-18T03:53:22.823Z,11.83
2018-04-18T03:54:22.808Z,11.88
2018-04-18T03:55:22.784Z,11.87
2018-04-18T03:56:22.756Z,11.86
2018-04-18T03:57:22.733Z,11.87
2018-04-18T03:58:22.462Z,11.84
2018-04-18T03:59:22.686Z,11.84
2018-04-18T04:00:22.669Z,11.84
2018-04-18T04:01:22.640Z,11.88
2018-04-18T04:02:22.613Z,11.81
2018-04-18T04:03:22.592Z,11.87
2018-04-18T04:04:22.576Z,11.84
2018-04-18T04:05:22.651Z,11.77
2018-04-18T04:06:22.522Z,11.81
2018-04-18T04:07:22.497Z,11.83
2018-04-18T04:08:22.471Z,11.8
2018-04-18T04:09:22.457Z,11.86
2018-04-18T04:10:22.478Z,11.86
2018-04-18T04:11:22.417Z,11.86
2018-04-18T04:12:22.385Z,11.87
2018-04-18T04:13:22.353Z,11.87
2018-04-18T04:14:22.093Z,11.91
2018-04-18T04:15:22.065Z,11.87
2018-04-18T04:16:22.289Z,11.97
2018-04-18T04:17:22.265Z,11.88
2018-04-18T04:18:22.240Z,11.9
2018-04-18T04:19:22.225Z,11.97
2018-04-18T04:20:22.196Z,11.95
2018-04-18T04:21:22.169Z,11.86
2018-04-18T04:22:22.148Z,12.04
2018-04-18T04:23:22.125Z,11.84
2018-04-18T04:24:22.103Z,11.91
2018-04-18T04:25:21.833Z,11.86
2018-04-18T04:26:22.053Z,11.88
2018-04-18T04:27:21.783Z,11.88
2018-04-18T04:28:22.016Z,11.87
2018-04-18T04:29:21.985Z,11.84
2018-04-18T04:30:21.965Z,11.84
2018-04-18T04:31:21.940Z,11.88
2018-04-18T04:32:21.915Z,11.84
2018-04-18T04:33:21.894Z,11.86
2018-04-18T04:34:21.622Z,12
2018-04-18T04:35:21.847Z,12
2018-04-18T04:36:21.827Z,11.99
2018-04-18T04:37:21.798Z,11.97
2018-04-18T04:38:21.528Z,11.97
2018-04-18T04:39:21.504Z,11.88
2018-04-18T04:40:21.731Z,11.88
2018-04-18T04:41:21.479Z,11.91
2018-04-18T04:42:21.686Z,12.02
2018-04-18T04:43:21.658Z,11.95
2018-04-18T04:44:21.392Z,11.95
2018-04-18T04:45:21.614Z,12
2018-04-18T04:46:21.594Z,11.99
2018-04-18T04:47:21.319Z,12.03
2018-04-18T04:48:21.555Z,12.02
2018-04-18T04:49:21.522Z,12.04
2018-04-18T04:50:21.496Z,12.02
2018-04-18T04:51:21.481Z,12.04
2018-04-18T04:52:21.451Z,12.09
2018-04-18T04:53:21.432Z,12.06
2018-04-18T04:54:21.403Z,12.1
2018-04-18T04:55:21.148Z,12.09
2018-04-18T04:56:21.362Z,12.1
2018-04-18T04:57:21.084Z,12.18
2018-04-18T04:58:21.312Z,12.17
2018-04-18T04:59:21.290Z,12.2
2018-04-18T05:00:21.271Z,12.18
2018-04-18T05:01:21.245Z,12.27
2018-04-18T05:02:21.222Z,12.24
2018-04-18T05:03:21.205Z,12.22
2018-04-18T05:04:21.189Z,12.29
2018-04-18T05:05:21.161Z,12.24
2018-04-18T05:06:20.879Z,12.27
2018-04-18T05:07:21.108Z,12.35
2018-04-18T05:08:21.086Z,12.25
2018-04-18T05:09:21.062Z,12.39
2018-04-18T05:10:21.138Z,12.32
2018-04-18T05:11:21.019Z,12.37
2018-04-18T05:12:21.000Z,12.32
2018-04-18T05:13:20.969Z,12.32
2018-04-18T05:14:20.945Z,12.39
2018-04-18T05:15:20.955Z,12.39
2018-04-18T05:16:20.897Z,12.4
2018-04-18T05:17:20.874Z,12.36
2018-04-18T05:18:20.892Z,12.42
2018-04-18T05:19:20.835Z,12.4
2018-04-18T05:20:20.817Z,12.42
2018-04-18T05:21:20.845Z,12.47
2018-04-18T05:22:20.764Z,12.43
2018-04-18T05:23:20.745Z,12.42
2018-04-18T05:24:20.470Z,12.47
2018-04-18T05:25:20.703Z,12.37
2018-04-18T05:26:20.521Z,12.53
2018-04-18T05:27:20.651Z,12.45
2018-04-18T05:28:20.624Z,12.5
2018-04-18T05:29:20.606Z,12.42
2018-04-18T05:30:20.331Z,12.42
2018-04-18T05:31:20.554Z,12.54
2018-04-18T05:32:20.536Z,12.53
2018-04-18T05:33:20.522Z,12.58
2018-04-18T05:34:20.726Z,12.5
2018-04-18T05:35:21.122Z,12.58
2018-04-18T05:36:21.175Z,12.57
2018-04-18T05:37:21.783Z,12.58
2018-04-18T05:38:20.547Z,12.62
2018-04-18T05:39:20.379Z,12.73
2018-04-18T05:40:20.109Z,12.67
2018-04-18T05:41:20.335Z,12.76
2018-04-18T05:42:20.307Z,12.76
2018-04-18T05:43:20.292Z,12.73
2018-04-18T05:44:20.273Z,12.78
2018-04-18T05:45:20.380Z,12.83
2018-04-18T05:46:20.226Z,12.82
2018-04-18T05:47:20.201Z,12.87
2018-04-18T05:48:20.175Z,12.9
2018-04-18T05:49:20.157Z,12.91
2018-04-18T05:50:20.488Z,13.08
2018-04-18T05:51:20.163Z,13.05
2018-04-18T05:52:20.090Z,13.11
2018-04-18T05:53:20.065Z,13.16
2018-04-18T05:54:20.048Z,13.22
2018-04-18T05:55:20.103Z,13.23
2018-04-18T05:56:20.007Z,13.27
2018-04-18T05:57:19.977Z,13.33
2018-04-18T05:58:19.463Z,13.33
2018-04-18T05:59:19.688Z,13.47
2018-04-18T06:00:19.417Z,13.39
2018-04-18T06:01:19.896Z,13.44
2018-04-18T06:02:19.874Z,13.52
2018-04-18T06:03:19.844Z,13.57
2018-04-18T06:04:19.581Z,13.59
2018-04-18T06:05:19.806Z,13.6
2018-04-18T06:06:19.999Z,13.67
2018-04-18T06:07:19.768Z,13.71
2018-04-18T06:08:19.741Z,13.83
2018-04-18T06:09:19.724Z,13.86
2018-04-18T06:10:19.699Z,13.9
2018-04-18T06:11:19.841Z,14.07
2018-04-18T06:12:19.664Z,13.99
2018-04-18T06:13:19.636Z,14.08
2018-04-18T06:14:19.614Z,14.15
2018-04-18T06:15:19.342Z,14.12
2018-04-18T06:16:19.570Z,14.2
2018-04-18T06:17:19.571Z,14.23
2018-04-18T06:18:19.534Z,14.3
2018-04-18T06:19:19.713Z,14.36
2018-04-18T06:20:19.244Z,14.48
2018-04-18T06:21:19.470Z,14.63
2018-04-18T06:22:19.446Z,14.78
2018-04-18T06:23:19.177Z,14.88
2018-04-18T06:24:19.412Z,14.94
2018-04-18T06:25:19.390Z,15.15
2018-04-18T06:26:19.391Z,15.21
2018-04-18T06:27:19.532Z,15.28
2018-04-18T06:28:19.331Z,15.39
2018-04-18T06:29:19.317Z,15.44
2018-04-18T06:30:19.052Z,15.58
2018-04-18T06:31:19.276Z,15.64
2018-04-18T06:32:19.256Z,15.77
2018-04-18T06:33:19.238Z,15.7
2018-04-18T06:34:19.210Z,15.84
2018-04-18T06:35:19.199Z,15.91
2018-04-18T06:36:19.178Z,15.92
2018-04-18T06:37:19.238Z,16.1
2018-04-18T06:38:19.143Z,16.08
2018-04-18T06:39:19.131Z,16.1
2018-04-18T06:40:18.860Z,16.16
2018-04-18T06:41:18.840Z,16.36
2018-04-18T06:42:19.076Z,16.32
2018-04-18T06:43:19.105Z,16.36
2018-04-18T06:44:19.042Z,16.39
2018-04-18T06:45:19.033Z,16.39
2018-04-18T06:46:19.009Z,16.5
2018-04-18T06:47:18.993Z,16.49
2018-04-18T06:48:18.987Z,16.51
2018-04-18T06:49:18.960Z,16.46
2018-04-18T06:50:18.701Z,16.53
2018-04-18T06:51:18.740Z,16.64
2018-04-18T06:52:18.908Z,16.58
2018-04-18T06:53:18.891Z,16.49
2018-04-18T06:54:18.877Z,16.51
2018-04-18T06:55:18.624Z,16.6
2018-04-18T06:56:18.599Z,16.66
2018-04-18T06:57:18.823Z,16.6
2018-04-18T06:58:18.811Z,16.76
2018-04-18T06:59:18.802Z,16.75
2018-04-18T07:00:18.779Z,16.87
2018-04-18T07:01:18.507Z,16.81
2018-04-18T07:02:18.740Z,16.94
2018-04-18T07:03:18.513Z,17.06
2018-04-18T07:04:18.711Z,17.15
2018-04-18T07:05:18.447Z,17.16
2018-04-18T07:06:18.679Z,17.38
2018-04-18T07:07:18.670Z,17.41
2018-04-18T07:08:18.647Z,17.46
2018-04-18T07:09:18.633Z,17.63
2018-04-18T07:10:18.622Z,17.68
2018-04-18T07:11:18.701Z,17.79
2018-04-18T07:12:18.597Z,17.89
2018-04-18T07:13:18.774Z,17.94
2018-04-18T07:14:18.562Z,18.07
2018-04-18T07:15:18.547Z,18.18
2018-04-18T07:16:18.543Z,18.13
2018-04-18T07:17:18.519Z,18.37
2018-04-18T07:18:18.256Z,18.38
2018-04-18T07:19:18.496Z,18.45
2018-04-18T07:20:18.476Z,18.52
2018-04-18T07:21:18.468Z,18.5
2018-04-18T07:22:18.458Z,18.56
2018-04-18T07:23:18.440Z,18.7
2018-04-18T07:24:18.425Z,18.56
2018-04-18T07:25:18.424Z,18.73
2018-04-18T07:26:18.397Z,18.65
2018-04-18T07:27:18.132Z,18.73
2018-04-18T07:28:18.370Z,18.8
2018-04-18T07:29:18.153Z,18.84
2018-04-18T07:30:18.101Z,18.84
2018-04-18T07:31:18.329Z,18.96
2018-04-18T07:32:18.322Z,18.93
2018-04-18T07:33:18.310Z,19.12
2018-04-18T07:34:18.352Z,19.19
2018-04-18T07:35:18.280Z,19.16
2018-04-18T07:36:18.321Z,19.19
2018-04-18T07:37:18.169Z,19.27
2018-04-18T07:38:18.938Z,19.41
2018-04-18T07:39:18.003Z,19.56
2018-04-18T07:40:18.297Z,19.52
2018-04-18T07:41:18.322Z,19.62
2018-04-18T07:42:18.094Z,19.67
2018-04-18T07:43:19.054Z,19.81
2018-04-18T07:44:17.957Z,19.77
2018-04-18T07:45:18.164Z,19.79
2018-04-18T07:46:18.148Z,19.74
2018-04-18T07:47:18.139Z,19.86
2018-04-18T07:48:18.133Z,19.94
2018-04-18T07:49:18.119Z,20.06
2018-04-18T07:50:18.270Z,20.19
2018-04-18T07:51:18.164Z,20.19
2018-04-18T07:52:17.785Z,20.31
2018-04-18T07:53:17.578Z,20.26
2018-04-18T07:54:18.067Z,20.34
2018-04-18T07:55:17.804Z,20.4
2018-04-18T07:56:18.052Z,20.4
2018-04-18T07:57:18.030Z,20.39
2018-04-18T07:58:17.624Z,20.31
2018-04-18T07:59:18.018Z,20.31
2018-04-18T08:00:18.012Z,20.21
2018-04-18T08:01:17.744Z,20.19
2018-04-18T08:02:17.984Z,20.19
2018-04-18T08:03:17.724Z,20.18
2018-04-18T08:04:17.961Z,20.16
2018-04-18T08:05:17.959Z,20.21
2018-04-18T08:06:17.692Z,20.04
2018-04-18T08:07:17.930Z,20.02
2018-04-18T08:08:17.920Z,20.13
2018-04-18T08:09:17.905Z,20.07
2018-04-18T08:10:17.903Z,20.03
2018-04-18T08:11:17.895Z,20.04
2018-04-18T08:12:17.879Z,20.1
2018-04-18T08:13:17.618Z,20.07
2018-04-18T08:14:18.062Z,19.95
2018-04-18T08:15:17.951Z,19.99
2018-04-18T08:16:17.822Z,19.99
2018-04-18T08:17:17.821Z,20.02
2018-04-18T08:18:17.553Z,19.96
2018-04-18T08:19:17.293Z,19.99
2018-04-18T08:20:18.057Z,19.88
2018-04-18T08:21:17.546Z,19.86
2018-04-18T08:22:17.749Z,19.85
2018-04-18T08:23:17.488Z,19.91
2018-04-18T08:24:17.722Z,19.82
2018-04-18T08:25:17.459Z,19.82
2018-04-18T08:26:17.448Z,19.91
2018-04-18T08:27:17.680Z,19.88
2018-04-18T08:28:17.669Z,19.91
2018-04-18T08:29:17.656Z,19.95
2018-04-18T08:30:17.642Z,19.96
2018-04-18T08:31:17.633Z,19.95
2018-04-18T08:32:17.371Z,20.07
2018-04-18T08:33:17.599Z,20.11
2018-04-18T08:34:17.583Z,20.02
2018-04-18T08:35:17.569Z,20.13
2018-04-18T08:36:17.560Z,20.21
2018-04-18T08:37:17.545Z,20.4
2018-04-18T08:38:17.279Z,20.41
2018-04-18T08:39:17.514Z,20.48
2018-04-18T08:40:17.494Z,20.5
2018-04-18T08:41:17.491Z,20.52
2018-04-18T08:42:17.480Z,20.56
2018-04-18T08:43:17.212Z,20.63
2018-04-18T08:44:16.952Z,20.65
2018-04-18T08:45:17.184Z,20.72
2018-04-18T08:46:17.419Z,20.7
2018-04-18T08:47:17.406Z,20.74
2018-04-18T08:48:17.397Z,20.75
2018-04-18T08:49:17.387Z,20.78
2018-04-18T08:50:17.373Z,20.8
2018-04-18T08:51:17.361Z,20.85
2018-04-18T08:52:17.347Z,20.84
2018-04-18T08:53:17.090Z,20.81
2018-04-18T08:54:17.320Z,20.84
2018-04-18T08:55:17.306Z,20.85
2018-04-18T08:56:17.295Z,20.85
2018-04-18T08:57:17.284Z,20.85
2018-04-18T08:58:17.269Z,20.88
2018-04-18T08:59:17.270Z,20.96
2018-04-18T09:00:16.993Z,20.88
2018-04-18T09:01:17.246Z,20.95
2018-04-18T09:02:17.027Z,21.02
2018-04-18T09:03:16.956Z,21
2018-04-18T09:04:16.947Z,21.07
2018-04-18T09:05:17.183Z,21.03
2018-04-18T09:06:17.168Z,21.02
2018-04-18T09:07:16.898Z,21.06
2018-04-18T09:08:17.251Z,21.02
2018-04-18T09:09:17.121Z,21.14
2018-04-18T09:10:16.858Z,21.17
2018-04-18T09:11:17.097Z,21.27
2018-04-18T09:12:16.582Z,21.24
2018-04-18T09:13:17.062Z,21.25
2018-04-18T09:14:17.048Z,21.29
2018-04-18T09:15:16.791Z,21.33
2018-04-18T09:16:17.025Z,21.35
2018-04-18T09:17:16.757Z,21.4
2018-04-18T09:18:17.009Z,21.36
2018-04-18T09:19:16.539Z,21.35
2018-04-18T09:20:16.724Z,21.39
2018-04-18T09:21:16.705Z,21.39
2018-04-18T09:22:16.940Z,21.33
2018-04-18T09:23:16.677Z,21.37
2018-04-18T09:24:16.924Z,21.35
2018-04-18T09:25:17.010Z,21.42
2018-04-18T09:26:16.636Z,21.43
2018-04-18T09:27:16.625Z,21.45
2018-04-18T09:28:16.605Z,21.48
2018-04-18T09:29:16.344Z,21.4
2018-04-18T09:30:16.825Z,21.48
2018-04-18T09:31:16.810Z,21.4
2018-04-18T09:32:16.793Z,21.4
2018-04-18T09:33:16.786Z,21.46
2018-04-18T09:34:16.518Z,21.5
2018-04-18T09:35:16.747Z,21.54
2018-04-18T09:36:16.740Z,21.58
2018-04-18T09:37:17.016Z,21.64
2018-04-18T09:38:16.709Z,21.58
2018-04-18T09:39:16.705Z,21.61
2018-04-18T09:40:16.439Z,21.61
2018-04-18T09:41:16.538Z,21.67
2018-04-18T09:42:17.013Z,21.67
2018-04-18T09:43:16.809Z,21.69
2018-04-18T09:44:16.643Z,21.72
2018-04-18T09:45:16.607Z,21.75
2018-04-18T09:46:16.109Z,21.75
2018-04-18T09:47:16.599Z,21.7
2018-04-18T09:48:16.569Z,21.73
2018-04-18T09:49:16.311Z,21.76
2018-04-18T09:50:16.540Z,21.85
2018-04-18T09:51:16.279Z,21.88
2018-04-18T09:52:16.516Z,21.93
2018-04-18T09:53:16.501Z,21.95
2018-04-18T09:54:16.239Z,21.89
2018-04-18T09:55:16.473Z,22.07
2018-04-18T09:56:15.960Z,21.98
2018-04-18T09:57:16.448Z,22.04
2018-04-18T09:58:16.584Z,22.08
2018-04-18T09:59:16.414Z,22.14
2018-04-18T10:00:16.406Z,22.13
2018-04-18T10:01:16.384Z,22.17
2018-04-18T10:02:16.123Z,22.23
2018-04-18T10:03:16.385Z,22.22
2018-04-18T10:04:16.341Z,22.26
2018-04-18T10:05:15.831Z,22.26
2018-04-18T10:06:16.315Z,22.2
2018-04-18T10:07:16.302Z,22.3
2018-04-18T10:08:16.284Z,22.33
2018-04-18T10:09:16.277Z,22.43
2018-04-18T10:10:16.023Z,22.44
2018-04-18T10:11:16.248Z,22.45
2018-04-18T10:12:16.232Z,22.54
2018-04-18T10:13:16.222Z,22.55
2018-04-18T10:14:16.210Z,22.53
2018-04-18T10:15:16.193Z,22.62
2018-04-18T10:16:15.988Z,22.59
2018-04-18T10:17:16.161Z,22.65
2018-04-18T10:18:16.151Z,22.6
2018-04-18T10:19:15.891Z,22.62
2018-04-18T10:20:15.877Z,22.54
2018-04-18T10:21:15.865Z,22.57
2018-04-18T10:22:16.095Z,22.51
2018-04-18T10:23:15.836Z,22.54
2018-04-18T10:24:16.090Z,22.57
2018-04-18T10:25:16.061Z,22.62
2018-04-18T10:26:16.043Z,22.69
2018-04-18T10:27:16.060Z,22.8
2018-04-18T10:28:16.039Z,22.9
2018-04-18T10:29:15.766Z,22.93
2018-04-18T10:30:15.989Z,22.87
2018-04-18T10:31:15.482Z,22.96
2018-04-18T10:32:15.963Z,23.08
2018-04-18T10:33:15.951Z,23.03
2018-04-18T10:34:15.940Z,23.06
2018-04-18T10:35:15.677Z,23.23
2018-04-18T10:36:15.909Z,23.17
2018-04-18T10:37:15.899Z,23.23
2018-04-18T10:38:15.680Z,23.21
2018-04-18T10:39:15.624Z,23.25
2018-04-18T10:40:15.855Z,23.41
2018-04-18T10:41:15.852Z,23.5
2018-04-18T10:42:15.839Z,23.55
2018-04-18T10:43:15.821Z,23.61
2018-04-18T10:44:15.560Z,23.68
2018-04-18T10:45:15.795Z,23.66
2018-04-18T10:46:15.795Z,23.8
2018-04-18T10:47:15.769Z,23.8
2018-04-18T10:48:15.756Z,23.81
2018-04-18T10:49:15.746Z,23.76
2018-04-18T10:50:15.733Z,23.78
2018-04-18T10:51:15.723Z,23.74
2018-04-18T10:52:15.708Z,23.73
2018-04-18T10:53:15.699Z,23.71
2018-04-18T10:54:15.681Z,23.62
2018-04-18T10:55:15.421Z,23.69
2018-04-18T10:56:15.660Z,23.71
2018-04-18T10:57:15.393Z,23.63
2018-04-18T10:58:15.400Z,23.65
2018-04-18T10:59:15.370Z,23.68
2018-04-18T11:00:15.359Z,23.69
2018-04-18T11:01:15.852Z,23.71
2018-04-18T11:02:15.584Z,23.78
2018-04-18T11:03:15.575Z,23.86
2018-04-18T11:04:15.308Z,23.98
2018-04-18T11:05:15.547Z,23.91
2018-04-18T11:06:15.545Z,23.92
2018-04-18T11:07:15.525Z,23.84
2018-04-18T11:08:15.268Z,23.84
2018-04-18T11:09:15.500Z,23.84
2018-04-18T11:10:15.488Z,23.95
2018-04-18T11:11:15.472Z,23.95
2018-04-18T11:12:15.463Z,23.99
2018-04-18T11:13:15.586Z,24.03
2018-04-18T11:14:14.941Z,24.16
2018-04-18T11:15:15.524Z,24.11
2018-04-18T11:16:15.411Z,24.14
2018-04-18T11:17:15.398Z,24.18
2018-04-18T11:18:15.142Z,24.21
2018-04-18T11:19:15.126Z,24.21
2018-04-18T11:20:15.368Z,24.3
2018-04-18T11:21:15.352Z,24.29
2018-04-18T11:22:15.092Z,24.32
2018-04-18T11:23:15.086Z,24.28
2018-04-18T11:24:15.068Z,24.29
2018-04-18T11:25:15.306Z,24.38
2018-04-18T11:26:15.046Z,24.33
2018-04-18T11:27:15.041Z,24.29
2018-04-18T11:28:15.270Z,24.29
2018-04-18T11:29:15.260Z,24.39
2018-04-18T11:30:15.009Z,24.38
2018-04-18T11:31:15.236Z,24.39
2018-04-18T11:32:14.975Z,24.47
2018-04-18T11:33:15.213Z,24.5
2018-04-18T11:34:15.490Z,24.42
2018-04-18T11:35:15.291Z,24.43
2018-04-18T11:36:14.745Z,24.57
2018-04-18T11:37:15.169Z,24.53
2018-04-18T11:38:15.154Z,24.54
2018-04-18T11:39:15.153Z,24.68
2018-04-18T11:40:14.887Z,24.77
2018-04-18T11:41:15.119Z,24.73
2018-04-18T11:42:15.109Z,24.74
2018-04-18T11:43:15.093Z,24.7
2018-04-18T11:44:14.838Z,24.69
2018-04-18T11:45:15.080Z,24.77
2018-04-18T11:46:15.067Z,24.88
2018-04-18T11:47:15.058Z,24.65
2018-04-18T11:48:15.039Z,24.73
2018-04-18T11:49:15.025Z,24.68
2018-04-18T11:50:15.023Z,24.69
2018-04-18T11:51:15.118Z,24.7
2018-04-18T11:52:14.748Z,24.77
2018-04-18T11:53:14.995Z,24.81
2018-04-18T11:54:14.973Z,24.96
2018-04-18T11:55:14.964Z,24.93
2018-04-18T11:56:14.703Z,24.99
2018-04-18T11:57:14.944Z,25.11
2018-04-18T11:58:14.923Z,25.11
2018-04-18T11:59:14.913Z,25.14
2018-04-18T12:00:14.905Z,25.07
2018-04-18T12:01:14.643Z,25.07
2018-04-18T12:02:15.007Z,25.07
2018-04-18T12:03:14.873Z,25.07
2018-04-18T12:04:15.083Z,25.06
2018-04-18T12:05:14.844Z,25.13
2018-04-18T12:06:14.838Z,25.17
2018-04-18T12:07:14.831Z,25.21
2018-04-18T12:08:14.814Z,25.22
2018-04-18T12:09:14.556Z,25.06
2018-04-18T12:10:14.791Z,25.13
2018-04-18T12:11:14.536Z,25.11
2018-04-18T12:12:14.769Z,25.17
2018-04-18T12:13:14.760Z,25.18
2018-04-18T12:14:14.750Z,25.11
2018-04-18T12:15:14.740Z,25.22
2018-04-18T12:16:14.478Z,25.18
2018-04-18T12:17:14.721Z,25.16
2018-04-18T12:18:14.459Z,25.21
2018-04-18T12:19:14.449Z,25.26
2018-04-18T12:20:14.458Z,25.29
2018-04-18T12:21:14.756Z,25.48
2018-04-18T12:22:14.447Z,25.6
2018-04-18T12:23:14.652Z,25.68
2018-04-18T12:24:14.643Z,25.7
2018-04-18T12:25:14.382Z,25.75
2018-04-18T12:26:14.656Z,25.8
2018-04-18T12:27:14.358Z,25.78
2018-04-18T12:28:14.597Z,25.88
2018-04-18T12:29:14.336Z,25.83
2018-04-18T12:30:14.577Z,25.83
2018-04-18T12:31:14.317Z,25.73
2018-04-18T12:32:14.551Z,25.73
2018-04-18T12:33:14.553Z,25.85
2018-04-18T12:34:14.530Z,25.68
2018-04-18T12:35:14.277Z,25.66
2018-04-18T12:36:14.516Z,25.7
2018-04-18T12:37:14.507Z,25.72
2018-04-18T12:38:14.244Z,25.73
2018-04-18T12:39:14.486Z,25.93
2018-04-18T12:40:14.000Z,25.96
2018-04-18T12:41:14.207Z,26.18
2018-04-18T12:42:14.451Z,26.38
2018-04-18T12:43:14.516Z,26.43
2018-04-18T12:44:14.435Z,26.53
2018-04-18T12:45:14.421Z,26.55
2018-04-18T12:46:14.540Z,26.74
2018-04-18T12:47:14.397Z,26.81
2018-04-18T12:48:14.406Z,26.78
2018-04-18T12:49:14.381Z,26.65
2018-04-18T12:50:14.377Z,26.68
2018-04-18T12:51:14.363Z,26.53
2018-04-18T12:52:14.349Z,26.51
2018-04-18T12:53:14.098Z,26.33
2018-04-18T12:54:14.332Z,26.34
2018-04-18T12:55:14.378Z,26.23
2018-04-18T12:56:14.308Z,26.09